Time;durP1;ratioP1;P1;durP2;ratioP2;P2;SDS_P1;SDS_P2;PMS_P1;PMS_P2;Temp;Humidity;BMP_temperature;BMP_pressure;BME280_temperature;BME280_humidity;BME280_pressure;Samples;Min_cycle;Max_cycle;Signal;HPM_P1;HPM_P2
2023/10/22 00:01:19;;;;;;;0.70;0.38;;;;;;;12.22;100.00;99548.72;4992899;28;99394;-27
2023/10/22 00:03:44;;;;;;;0.63;0.30;;;;;;;12.28;100.00;99559.91;4992860;28;96523;-27
2023/10/22 00:06:10;;;;;;;1.45;0.20;;;;;;;12.28;100.00;99562.63;4992667;28;96828;-27
2023/10/22 00:08:35;;;;;;;1.13;0.35;;;;;;;12.33;100.00;99573.94;4992256;28;97458;-27
2023/10/22 00:11:00;;;;;;;1.15;0.30;;;;;;;12.29;100.00;99577.91;4992640;28;99420;-27
2023/10/22 00:13:25;;;;;;;1.27;0.47;;;;;;;12.37;100.00;99584.50;4992885;28;96690;-28
2023/10/22 00:15:51;;;;;;;0.20;0.20;;;;;;;12.36;100.00;99583.66;4991442;28;96925;-28
2023/10/22 00:18:16;;;;;;;0.75;0.35;;;;;;;12.36;100.00;99582.81;4992000;28;97363;-27
2023/10/22 00:20:41;;;;;;;0.10;0.08;;;;;;;12.36;100.00;99589.09;4992273;28;98891;-27
2023/10/22 00:23:07;;;;;;;0.63;0.35;;;;;;;12.37;100.00;99598.97;4992349;28;96589;-28
2023/10/22 00:25:36;;;;;;;0.95;0.60;;;;;;;12.33;100.00;99606.50;4992780;28;96900;-27
2023/10/22 00:28:01;;;;;;;0.63;0.50;;;;;;;12.31;100.00;99599.50;4990942;28;101335;-27
2023/10/22 00:30:27;;;;;;;1.40;0.43;;;;;;;12.33;100.00;99611.94;4990900;28;99509;-27
2023/10/22 00:32:52;;;;;;;0.20;0.20;;;;;;;12.32;100.00;99607.53;4992026;28;96478;-27
2023/10/22 00:35:17;;;;;;;0.98;0.40;;;;;;;12.31;100.00;99613.06;4992326;28;96943;-27
2023/10/22 00:37:43;;;;;;;0.50;0.38;;;;;;;12.29;100.00;99615.91;4992513;28;97494;-27
2023/10/22 00:40:09;;;;;;;0.20;0.20;;;;;;;12.30;100.00;99606.78;4992093;28;99249;-27
2023/10/22 00:42:34;;;;;;;0.10;0.10;;;;;;;12.26;100.00;99618.06;4992129;28;96494;-28
2023/10/22 00:44:59;;;;;;;2.55;0.25;;;;;;;12.30;100.00;99620.38;4992033;28;96725;-27
2023/10/22 00:47:25;;;;;;;0.22;0.20;;;;;;;12.28;100.00;99625.06;4991617;28;99077;-27
2023/10/22 00:49:52;;;;;;;0.30;0.30;;;;;;;12.31;100.00;99623.94;4992966;28;96583;-27
2023/10/22 00:52:17;;;;;;;0.50;0.30;;;;;;;12.27;100.00;99634.19;4992191;28;96460;-28
2023/10/22 00:54:45;;;;;;;0.35;0.22;;;;;;;12.29;100.00;99634.06;4992257;28;96482;-28
2023/10/22 00:57:12;;;;;;;0.20;0.20;;;;;;;12.31;100.00;99649.22;4989986;28;101185;-28
2023/10/22 00:59:37;;;;;;;0.13;0.13;;;;;;;12.31;100.00;99653.81;4990345;28;101023;-28
2023/10/22 01:02:02;;;;;;;0.20;0.20;;;;;;;12.29;100.00;99651.22;4992244;28;96860;-27
2023/10/22 01:04:28;;;;;;;0.25;0.20;;;;;;;12.25;100.00;99660.66;4992203;28;96779;-28
2023/10/22 01:06:53;;;;;;;0.10;0.10;;;;;;;12.30;100.00;99665.69;4991939;28;98314;-27
2023/10/22 01:09:20;;;;;;;0.55;0.40;;;;;;;12.31;100.00;99667.38;4992019;28;98273;-27
2023/10/22 01:11:59;;;;;;;0.00;0.00;;;;;;;12.37;100.00;99682.28;4990629;28;96669;-28
2023/10/22 01:14:24;;;;;;;0.32;0.22;;;;;;;12.33;100.00;99671.69;4990786;28;96861;-27
2023/10/22 01:16:50;;;;;;;0.52;0.25;;;;;;;12.31;100.00;99670.97;4991730;28;97966;-29
2023/10/22 01:19:15;;;;;;;0.15;0.15;;;;;;;12.31;100.00;99684.53;4991928;28;97342;-27
2023/10/22 01:21:40;;;;;;;2.28;0.20;;;;;;;12.33;100.00;99679.84;4991173;28;97485;-28
2023/10/22 01:24:06;;;;;;;0.52;0.20;;;;;;;12.37;100.00;99687.69;4991675;28;96815;-28
2023/10/22 01:26:32;;;;;;;1.77;0.15;;;;;;;12.38;100.00;99694.88;4990165;28;101579;-28
2023/10/22 01:28:57;;;;;;;0.47;0.25;;;;;;;12.41;100.00;99703.59;4993323;28;99057;-29
2023/10/22 01:31:22;;;;;;;0.52;0.22;;;;;;;12.40;100.00;99701.03;4995659;28;96687;-27
2023/10/22 01:33:48;;;;;;;0.40;0.20;;;;;;;12.45;100.00;99715.06;4995084;28;97044;-27
2023/10/22 01:36:13;;;;;;;0.20;0.20;;;;;;;12.50;100.00;99723.66;4995193;28;97929;-27
2023/10/22 01:38:38;;;;;;;0.63;0.22;;;;;;;12.52;100.00;99732.53;4995465;28;97778;-28
2023/10/22 01:41:06;;;;;;;0.10;0.10;;;;;;;12.54;100.00;99736.00;4995068;28;96613;-28
2023/10/22 01:43:31;;;;;;;0.32;0.15;;;;;;;12.58;100.00;99742.00;4993713;28;96977;-27
2023/10/22 01:45:56;;;;;;;0.73;0.30;;;;;;;12.62;100.00;99754.31;4993655;28;98970;-27
2023/10/22 01:48:22;;;;;;;0.47;0.32;;;;;;;12.62;100.00;99744.31;4994894;28;97251;-27
2023/10/22 01:50:47;;;;;;;1.17;0.22;;;;;;;12.69;100.00;99764.50;4995146;28;96748;-29
2023/10/22 01:53:12;;;;;;;2.35;0.80;;;;;;;12.66;100.00;99772.94;4994795;28;96876;-27
2023/10/22 01:55:38;;;;;;;0.73;0.32;;;;;;;12.72;100.00;99782.41;4994717;28;99341;-27
2023/10/22 01:58:03;;;;;;;0.22;0.20;;;;;;;12.71;100.00;99781.53;4994592;28;97770;-29
2023/10/22 02:00:30;;;;;;;0.40;0.40;;;;;;;12.70;100.00;99782.56;4994804;28;97675;-28
2023/10/22 02:02:55;;;;;;;0.88;0.38;;;;;;;12.75;100.00;99796.59;4995055;28;96857;-27
2023/10/22 02:05:20;;;;;;;0.90;0.28;;;;;;;12.74;100.00;99811.16;4994423;28;99359;-28
2023/10/22 02:07:46;;;;;;;1.30;0.22;;;;;;;12.72;100.00;99805.00;4994416;28;99377;-27
2023/10/22 02:10:11;;;;;;;0.30;0.28;;;;;;;12.73;100.00;99823.03;4994160;28;96676;-27
2023/10/22 02:12:37;;;;;;;1.10;0.40;;;;;;;12.69;100.00;99823.44;4994489;28;96785;-27
2023/10/22 02:15:02;;;;;;;1.67;0.60;;;;;;;12.72;100.00;99850.31;4994511;28;97844;-28
2023/10/22 02:17:27;;;;;;;1.92;0.55;;;;;;;12.70;100.00;99836.00;4994262;28;98782;-28
2023/10/22 02:19:53;;;;;;;0.52;0.30;;;;;;;12.72;100.00;99864.78;4994445;28;96661;-28
2023/10/22 02:22:18;;;;;;;1.40;0.60;;;;;;;12.67;100.00;99866.16;4994575;28;96734;-27
2023/10/22 02:24:44;;;;;;;1.13;0.60;;;;;;;12.67;100.00;99877.03;4994484;28;97846;-27
2023/10/22 02:27:09;;;;;;;2.15;0.57;;;;;;;12.66;100.00;99895.22;4994196;28;99183;-28
2023/10/22 02:29:36;;;;;;;1.55;0.77;;;;;;;12.58;100.00;99892.25;4994363;28;96471;-27
2023/10/22 02:32:02;;;;;;;2.35;0.80;;;;;;;12.53;100.00;99908.09;4994291;28;96749;-28
2023/10/22 02:34:27;;;;;;;1.38;0.60;;;;;;;12.44;100.00;99915.19;4993479;28;99304;-28
2023/10/22 02:36:52;;;;;;;0.65;0.30;;;;;;;12.40;100.00;99930.00;4994164;28;97268;-29
2023/10/22 02:39:19;;;;;;;3.70;0.60;;;;;;;12.33;100.00;99939.66;4993998;28;96540;-27
2023/10/22 02:41:45;;;;;;;0.57;0.30;;;;;;;12.31;100.00;99955.22;4992241;28;96737;-27
2023/10/22 02:44:10;;;;;;;1.42;0.55;;;;;;;12.22;100.00;99954.13;4993908;28;97382;-27
2023/10/22 02:46:35;;;;;;;1.05;0.60;;;;;;;12.14;100.00;99943.06;4993707;28;97795;-28
2023/10/22 02:49:01;;;;;;;0.38;0.35;;;;;;;12.22;100.00;99972.28;4994166;28;96586;-27
2023/10/22 02:51:26;;;;;;;1.02;0.40;;;;;;;12.18;100.00;99979.81;4994537;28;96781;-27
2023/10/22 02:53:52;;;;;;;0.68;0.30;;;;;;;12.07;100.00;99983.41;4993358;28;99249;-28
2023/10/22 02:56:17;;;;;;;0.73;0.40;;;;;;;12.10;100.00;99996.72;4994185;28;97192;-27
2023/10/22 02:58:42;;;;;;;1.05;0.52;;;;;;;12.13;100.00;100008.31;4993577;28;96566;-27
2023/10/22 03:01:10;;;;;;;1.65;0.35;;;;;;;12.06;100.00;100002.53;4994027;28;96908;-28
2023/10/22 03:03:40;;;;;;;3.03;0.63;;;;;;;12.00;100.00;100011.19;4992364;28;101126;-27
2023/10/22 03:06:08;;;;;;;1.08;0.38;;;;;;;12.02;100.00;100025.50;4993596;28;97758;-28
2023/10/22 03:08:34;;;;;;;0.57;0.57;;;;;;;12.04;100.00;100034.38;4992188;28;96628;-28
2023/10/22 03:11:00;;;;;;;0.93;0.73;;;;;;;11.96;100.00;100039.53;4992230;28;96995;-29
2023/10/22 03:13:26;;;;;;;0.68;0.43;;;;;;;11.99;100.00;100040.19;4992155;28;100980;-27
2023/10/22 03:15:51;;;;;;;0.40;0.40;;;;;;;11.94;100.00;100036.97;4994232;28;97068;-28
2023/10/22 03:18:16;;;;;;;0.75;0.40;;;;;;;11.93;100.00;100042.50;4993444;28;96766;-27
2023/10/22 03:20:42;;;;;;;0.52;0.40;;;;;;;11.97;100.00;100044.00;4993686;28;96869;-27
2023/10/22 03:23:08;;;;;;;2.83;0.40;;;;;;;11.93;100.00;100056.09;4992765;28;98931;-28
2023/10/22 03:25:34;;;;;;;1.52;0.60;;;;;;;11.90;100.00;100055.34;4993092;28;99713;-27
2023/10/22 03:28:02;;;;;;;1.63;0.30;;;;;;;11.98;100.00;100070.16;4992004;28;96800;-28
2023/10/22 03:30:28;;;;;;;0.88;0.43;;;;;;;11.95;100.00;100068.53;4992156;28;96877;-28
2023/10/22 03:32:55;;;;;;;0.85;0.30;;;;;;;11.93;100.00;100073.22;4993106;28;99490;-27
2023/10/22 03:35:22;;;;;;;0.68;0.32;;;;;;;11.94;100.00;100088.53;4993231;28;97856;-29
2023/10/22 03:37:47;;;;;;;0.25;0.15;;;;;;;11.93;100.00;100086.78;4991773;28;96671;-27
2023/10/22 03:40:13;;;;;;;0.70;0.35;;;;;;;11.91;100.00;100088.75;4993544;28;96885;-28
2023/10/22 03:42:39;;;;;;;0.40;0.30;;;;;;;11.91;100.00;100091.47;4993236;28;97499;-27
2023/10/22 03:45:06;;;;;;;0.30;0.20;;;;;;;11.93;100.00;100105.78;4991443;28;100873;-27
2023/10/22 03:47:31;;;;;;;0.47;0.30;;;;;;;11.92;100.00;100103.19;4990693;28;97186;-27
2023/10/22 03:49:57;;;;;;;0.55;0.38;;;;;;;11.98;100.00;100119.00;4993090;28;96951;-27
2023/10/22 03:52:22;;;;;;;0.20;0.20;;;;;;;11.97;100.00;100120.00;4991638;28;97297;-28
2023/10/22 03:54:47;;;;;;;0.45;0.20;;;;;;;11.95;100.00;100127.41;4992750;28;98618;-27
2023/10/22 03:57:13;;;;;;;0.63;0.32;;;;;;;12.00;100.00;100145.03;4993102;28;96576;-28
2023/10/22 03:59:38;;;;;;;1.23;0.68;;;;;;;11.97;100.00;100145.28;4993138;28;96900;-28
2023/10/22 04:02:03;;;;;;;1.83;0.22;;;;;;;11.93;100.00;100143.78;4992940;28;98020;-27
2023/10/22 04:04:28;;;;;;;7.68;0.80;;;;;;;11.95;100.00;100157.25;4993495;28;97218;-28
2023/10/22 04:06:54;;;;;;;0.40;0.20;;;;;;;11.96;100.00;100169.81;4993070;28;96572;-28
2023/10/22 04:09:19;;;;;;;0.70;0.35;;;;;;;11.92;100.00;100169.22;4992746;28;96959;-27
2023/10/22 04:11:45;;;;;;;1.30;0.60;;;;;;;11.86;100.00;100177.78;4992125;28;99640;-28
2023/10/22 04:14:10;;;;;;;0.20;0.20;;;;;;;11.88;100.00;100190.28;4992467;28;99523;-29
2023/10/22 04:16:35;;;;;;;1.08;0.35;;;;;;;11.85;100.00;100195.94;4992881;28;96740;-28
2023/10/22 04:19:01;;;;;;;0.55;0.30;;;;;;;11.85;100.00;100195.06;4992751;28;96858;-27
2023/10/22 04:21:26;;;;;;;0.90;0.47;;;;;;;11.78;100.00;100188.38;4992728;28;97769;-28
2023/10/22 04:23:51;;;;;;;0.30;0.30;;;;;;;11.82;100.00;100208.84;4992564;28;97767;-28
2023/10/22 04:26:17;;;;;;;1.00;0.60;;;;;;;11.78;100.00;100202.81;4992777;28;96529;-28
2023/10/22 04:28:43;;;;;;;0.85;0.47;;;;;;;11.81;100.00;100215.28;4991568;28;96928;-28
2023/10/22 04:31:11;;;;;;;0.65;0.32;;;;;;;11.81;100.00;100212.56;4992372;28;98167;-28
2023/10/22 04:33:37;;;;;;;2.55;0.70;;;;;;;11.79;100.00;100199.09;4992150;28;99163;-28
2023/10/22 04:36:03;;;;;;;1.23;0.68;;;;;;;11.83;100.00;100213.31;4991884;28;96551;-28
2023/10/22 04:38:30;;;;;;;0.20;0.20;;;;;;;11.86;100.00;100218.50;4992363;28;96887;-27
2023/10/22 04:40:56;;;;;;;0.50;0.50;;;;;;;11.85;100.00;100230.34;4990913;28;101053;-28
2023/10/22 04:43:22;;;;;;;2.92;0.60;;;;;;;11.85;100.00;100233.91;4990635;28;101096;-29
2023/10/22 04:45:50;;;;;;;0.93;0.52;;;;;;;11.87;100.00;100234.69;4991549;28;96874;-27
2023/10/22 04:48:16;;;;;;;0.38;0.38;;;;;;;11.88;100.00;100238.28;4990900;28;96879;-28
2023/10/22 04:50:44;;;;;;;2.05;0.45;;;;;;;11.84;100.00;100243.03;4990672;28;101183;-28
2023/10/22 04:53:10;;;;;;;0.38;0.30;;;;;;;11.80;100.00;100246.13;4990837;28;99100;-27
2023/10/22 04:55:35;;;;;;;0.35;0.32;;;;;;;11.77;100.00;100249.91;4990664;28;96648;-27
2023/10/22 04:58:02;;;;;;;0.35;0.30;;;;;;;11.75;100.00;100254.59;4992305;28;96814;-28
2023/10/22 05:00:28;;;;;;;0.85;0.45;;;;;;;11.81;100.00;100258.69;4991325;28;99588;-27
2023/10/22 05:02:54;;;;;;;0.13;0.13;;;;;;;11.81;100.00;100261.41;4991027;28;101452;-27
2023/10/22 05:05:21;;;;;;;0.68;0.38;;;;;;;11.76;100.00;100250.03;4995436;28;96559;-28
2023/10/22 05:07:47;;;;;;;0.40;0.30;;;;;;;11.75;100.00;100257.31;4994066;28;96959;-27
2023/10/22 05:10:12;;;;;;;0.47;0.30;;;;;;;11.80;100.00;100260.53;4994163;28;101155;-28
2023/10/22 05:12:38;;;;;;;1.02;0.57;;;;;;;11.79;100.00;100260.66;4995477;28;97281;-27
2023/10/22 05:15:03;;;;;;;0.70;0.28;;;;;;;11.82;100.00;100261.28;4995477;28;96650;-27
2023/10/22 05:17:29;;;;;;;4.28;0.55;;;;;;;11.77;100.00;100260.75;4994471;28;97677;-28
2023/10/22 05:19:55;;;;;;;0.70;0.45;;;;;;;11.79;100.00;100266.94;4995421;28;98119;-28
2023/10/22 05:22:20;;;;;;;4.00;0.60;;;;;;;11.80;100.00;100281.41;4993771;28;99243;-27
2023/10/22 05:24:49;;;;;;;0.52;0.40;;;;;;;11.84;100.00;100281.00;4995112;28;96633;-27
2023/10/22 05:27:18;;;;;;;0.52;0.40;;;;;;;11.78;100.00;100276.06;4995308;28;96792;-28
2023/10/22 05:29:46;;;;;;;2.60;0.63;;;;;;;11.75;100.00;100292.59;4993679;28;101433;-28
2023/10/22 05:32:14;;;;;;;1.30;0.73;;;;;;;11.79;100.00;100298.63;4995172;28;97962;-27
2023/10/22 05:34:40;;;;;;;1.15;0.70;;;;;;;11.81;100.00;100297.53;4995213;28;96673;-27
2023/10/22 05:37:06;;;;;;;1.13;0.93;;;;;;;11.78;100.00;100307.78;4995222;28;96953;-28
2023/10/22 05:39:32;;;;;;;1.10;0.65;;;;;;;11.78;100.00;100307.78;4993654;28;99664;-28
2023/10/22 05:41:57;;;;;;;0.88;0.60;;;;;;;11.73;100.00;100313.53;4995478;28;97862;-27
2023/10/22 05:44:24;;;;;;;0.60;0.50;;;;;;;11.72;100.00;100317.22;4994752;28;99555;-27
2023/10/22 05:46:49;;;;;;;1.30;0.80;;;;;;;11.73;100.00;100321.69;4992949;28;96859;-27
2023/10/22 05:49:16;;;;;;;0.93;0.55;;;;;;;11.73;100.00;100327.09;4993947;28;99813;-27
2023/10/22 05:51:42;;;;;;;1.02;0.73;;;;;;;11.73;100.00;100337.97;4994647;28;99375;-27
2023/10/22 05:54:08;;;;;;;2.22;0.88;;;;;;;11.71;100.00;100349.91;4994754;28;96576;-28
2023/10/22 05:56:33;;;;;;;1.13;0.68;;;;;;;11.73;100.00;100351.53;4993456;28;96895;-29
2023/10/22 05:58:59;;;;;;;0.70;0.50;;;;;;;11.67;100.00;100355.53;4994793;28;97938;-27
2023/10/22 06:01:24;;;;;;;0.82;0.60;;;;;;;11.69;100.00;100352.72;4994511;28;99047;-28
2023/10/22 06:03:50;;;;;;;1.45;0.70;;;;;;;11.70;100.00;100359.88;4995178;28;96801;-28
2023/10/22 06:06:19;;;;;;;2.70;0.80;;;;;;;11.68;100.00;100362.72;4995224;28;96951;-27
2023/10/22 06:08:45;;;;;;;0.98;0.60;;;;;;;11.71;100.00;100367.06;4993017;28;101062;-28
2023/10/22 06:11:11;;;;;;;0.98;0.57;;;;;;;11.69;100.00;100375.28;4994515;28;99957;-27
2023/10/22 06:13:36;;;;;;;0.63;0.40;;;;;;;11.70;100.00;100381.56;4994233;28;96610;-30
2023/10/22 06:16:02;;;;;;;0.93;0.47;;;;;;;11.65;100.00;100373.78;4992092;28;96801;-27
2023/10/22 06:18:27;;;;;;;1.73;0.50;;;;;;;11.64;100.00;100382.91;4993882;28;99628;-27
2023/10/22 06:20:52;;;;;;;0.90;0.65;;;;;;;11.69;100.00;100388.00;4994575;28;97349;-27
2023/10/22 06:23:20;;;;;;;1.25;0.40;;;;;;;11.71;100.00;100391.47;4994499;28;96567;-27
2023/10/22 06:25:45;;;;;;;0.75;0.57;;;;;;;11.71;100.00;100393.31;4992892;28;96936;-29
2023/10/22 06:28:11;;;;;;;0.75;0.55;;;;;;;11.67;100.00;100403.53;4994292;28;100117;-28
2023/10/22 06:30:36;;;;;;;1.00;0.70;;;;;;;11.66;100.00;100404.50;4993124;28;101141;-27
2023/10/22 06:33:03;;;;;;;1.40;0.73;;;;;;;11.59;100.00;100417.66;4993952;28;96637;-27
2023/10/22 06:35:29;;;;;;;1.80;0.90;;;;;;;11.61;100.00;100421.13;4994190;28;96838;-27
2023/10/22 06:37:55;;;;;;;0.68;0.57;;;;;;;11.54;100.00;100416.25;4994000;28;97370;-28
2023/10/22 06:40:22;;;;;;;0.88;0.52;;;;;;;11.53;100.00;100431.66;4993977;28;99114;-27
2023/10/22 06:42:48;;;;;;;1.30;0.68;;;;;;;11.55;100.00;100429.69;4994301;28;96648;-28
2023/10/22 06:45:14;;;;;;;1.60;0.70;;;;;;;11.61;100.00;100441.97;4992262;28;96864;-28
2023/10/22 06:47:40;;;;;;;0.93;0.82;;;;;;;11.58;100.00;100444.88;4991749;28;101251;-27
2023/10/22 06:50:11;;;;;;;1.83;0.68;;;;;;;11.57;100.00;100448.59;4992412;28;101344;-28
2023/10/22 06:52:37;;;;;;;0.82;0.32;;;;;;;11.56;100.00;100464.00;4993895;28;96812;-27
2023/10/22 06:55:03;;;;;;;1.83;0.75;;;;;;;11.57;100.00;100473.00;4992818;28;96899;-27
2023/10/22 06:57:28;;;;;;;1.40;0.80;;;;;;;11.60;100.00;100470.06;4992524;28;101298;-27
2023/10/22 06:59:57;;;;;;;1.83;0.88;;;;;;;11.62;100.00;100474.38;4993933;28;97231;-28
2023/10/22 07:02:26;;;;;;;1.83;0.80;;;;;;;11.59;100.00;100476.47;4991617;28;96694;-27
2023/10/22 07:04:52;;;;;;;0.60;0.60;;;;;;;11.57;100.00;100476.56;4992418;28;96873;-28
2023/10/22 07:07:18;;;;;;;0.95;0.57;;;;;;;11.61;100.00;100490.78;4992192;28;99091;-27
2023/10/22 07:09:43;;;;;;;0.82;0.65;;;;;;;11.63;100.00;100489.72;4993710;28;97839;-28
2023/10/22 07:12:09;;;;;;;1.13;0.85;;;;;;;11.61;100.00;100490.78;4993591;28;96693;-27
2023/10/22 07:14:34;;;;;;;1.20;0.75;;;;;;;11.64;100.00;100501.41;4993673;28;96839;-27
2023/10/22 07:17:00;;;;;;;1.20;0.60;;;;;;;11.63;100.00;100508.69;4993372;28;100008;-28
2023/10/22 07:19:25;;;;;;;3.60;0.75;;;;;;;11.58;100.00;100499.13;4993728;28;100374;-27
2023/10/22 07:21:50;;;;;;;0.45;0.45;;;;;;;11.58;100.00;100518.97;4993587;28;96635;-27
2023/10/22 07:24:15;;;;;;;2.50;0.65;;;;;;;11.57;100.00;100517.25;4993527;28;96882;-29
2023/10/22 07:26:41;;;;;;;0.60;0.47;;;;;;;11.56;100.00;100514.63;4992852;28;98063;-27
2023/10/22 07:29:06;;;;;;;3.95;0.82;;;;;;;11.59;100.00;100523.44;4993150;28;97322;-27
2023/10/22 07:31:31;;;;;;;0.45;0.43;;;;;;;11.65;100.00;100532.97;4993358;28;96524;-27
2023/10/22 07:33:58;;;;;;;2.35;0.52;;;;;;;11.66;100.00;100534.75;4993580;28;96846;-27
2023/10/22 07:36:23;;;;;;;3.33;0.35;;;;;;;11.57;100.00;100527.25;4993095;28;98120;-27
2023/10/22 07:38:51;;;;;;;3.60;0.68;;;;;;;11.63;100.00;100543.06;4993329;28;97869;-27
2023/10/22 07:41:18;;;;;;;3.30;0.60;;;;;;;11.58;100.00;100545.25;4991906;28;96653;-29
2023/10/22 07:43:43;;;;;;;0.93;0.65;;;;;;;11.62;100.00;100546.78;4993145;28;96827;-28
2023/10/22 07:46:10;;;;;;;0.88;0.65;;;;;;;11.63;100.00;100548.50;4992475;28;98033;-27
2023/10/22 07:48:36;;;;;;;1.73;0.77;;;;;;;11.62;100.00;100546.78;4991488;28;101058;-27
2023/10/22 07:51:12;;;;;;;0.47;0.45;;;;;;;11.66;100.00;100562.72;4992639;28;96677;-27
2023/10/22 07:53:37;;;;;;;0.75;0.57;;;;;;;11.61;100.00;100555.91;4991613;28;96866;-29
2023/10/22 07:56:05;;;;;;;0.88;0.45;;;;;;;11.63;100.00;100562.97;4992881;28;98180;-27
2023/10/22 07:58:30;;;;;;;2.40;0.40;;;;;;;11.62;100.00;100568.47;4992844;28;97944;-27
2023/10/22 08:00:55;;;;;;;0.95;0.45;;;;;;;11.63;100.00;100570.19;4992993;28;96625;-28
2023/10/22 08:03:21;;;;;;;0.80;0.50;;;;;;;11.68;100.00;100584.34;4993210;28;96870;-27
2023/10/22 08:05:46;;;;;;;0.75;0.57;;;;;;;11.67;100.00;100577.16;4992714;28;99404;-27
2023/10/22 08:08:12;;;;;;;1.00;0.50;;;;;;;11.71;100.00;100589.53;4992887;28;99160;-27
2023/10/22 08:10:37;;;;;;;3.03;0.52;;;;;;;11.75;100.00;100588.34;4993015;28;96597;-27
2023/10/22 08:13:02;;;;;;;0.85;0.43;;;;;;;11.80;100.00;100585.31;4993116;28;96885;-27
2023/10/22 08:15:27;;;;;;;0.52;0.40;;;;;;;11.80;100.00;100599.75;4992341;28;97853;-28
2023/10/22 08:17:53;;;;;;;0.73;0.47;;;;;;;11.83;100.00;100604.09;4991392;28;101198;-27
2023/10/22 08:20:18;;;;;;;0.98;0.45;;;;;;;11.88;100.00;100607.38;4992843;28;96621;-28
2023/10/22 08:22:43;;;;;;;0.50;0.30;;;;;;;11.87;100.00;100600.22;4992824;28;96909;-28
2023/10/22 08:25:09;;;;;;;0.75;0.52;;;;;;;11.95;100.00;100597.81;4992522;28;97724;-28
2023/10/22 08:27:34;;;;;;;0.32;0.30;;;;;;;11.98;100.00;100602.16;4992113;28;97800;-28
2023/10/22 08:30:00;;;;;;;0.28;0.20;;;;;;;11.97;100.00;100585.00;4992827;28;96651;-27
2023/10/22 08:32:25;;;;;;;0.73;0.45;;;;;;;12.10;100.00;100603.97;4992973;28;96827;-27
2023/10/22 08:34:50;;;;;;;1.88;0.35;;;;;;;12.14;100.00;100599.22;4992508;28;98604;-27
2023/10/22 08:37:16;;;;;;;5.57;0.50;;;;;;;12.21;100.00;100597.78;4992142;28;97786;-27
2023/10/22 08:39:42;;;;;;;2.03;0.57;;;;;;;12.25;100.00;100593.84;4991406;28;96657;-27
2023/10/22 08:42:12;;;;;;;3.67;1.00;;;;;;;12.33;100.00;100605.91;4992532;28;96843;-27
2023/10/22 08:44:45;;;;;;;0.47;0.47;;;;;;;12.44;100.00;100605.13;4991767;28;99576;-28
2023/10/22 08:47:11;;;;;;;3.42;0.85;;;;;;;12.50;100.00;100611.97;4992120;28;97928;-28
2023/10/22 08:49:40;;;;;;;2.45;0.35;;;;;;;12.53;100.00;100615.28;4992467;28;96609;-27
2023/10/22 08:52:07;;;;;;;1.65;0.75;;;;;;;12.56;100.00;100625.09;4990769;28;96878;-27
2023/10/22 08:54:33;;;;;;;0.77;0.52;;;;;;;12.53;100.00;100630.75;4990324;28;101077;-28
2023/10/22 08:56:59;;;;;;;0.52;0.43;;;;;;;12.56;100.00;100635.97;4992420;28;98000;-27
2023/10/22 08:59:25;;;;;;;2.42;0.55;;;;;;;12.51;100.00;100640.84;4992272;28;97255;-27
2023/10/22 09:01:50;;;;;;;0.82;0.32;;;;;;;12.46;100.00;100645.75;4992070;28;96923;-28
2023/10/22 09:04:17;;;;;;;1.85;0.40;;;;;;;12.50;100.00;100648.13;4991936;28;97785;-27
2023/10/22 09:06:42;;;;;;;1.13;0.52;;;;;;;12.52;100.00;100645.31;4990544;28;101076;-27
2023/10/22 09:09:08;;;;;;;3.72;0.60;;;;;;;12.59;100.00;100662.03;4992137;28;97230;-27
2023/10/22 09:11:34;;;;;;;0.68;0.45;;;;;;;12.61;100.00;100649.19;4990687;28;96905;-27
2023/10/22 09:14:00;;;;;;;1.60;0.52;;;;;;;12.69;100.00;100661.25;4991907;28;97473;-28
2023/10/22 09:16:33;;;;;;;0.85;0.50;;;;;;;12.78;100.00;100661.56;4991645;28;99145;-27
2023/10/22 09:19:01;;;;;;;3.45;0.80;;;;;;;12.79;100.00;100653.28;4992042;28;96607;-27
2023/10/22 09:21:44;;;;;;;1.17;0.30;;;;;;;12.72;100.00;100654.72;4990885;28;96808;-27
2023/10/22 09:24:09;;;;;;;1.65;0.20;;;;;;;12.82;100.00;100665.78;4990287;28;100903;-28
2023/10/22 09:26:42;;;;;;;1.38;0.40;;;;;;;12.92;100.00;100670.44;4991601;28;97846;-27
2023/10/22 09:29:07;;;;;;;1.25;0.60;;;;;;;12.89;100.00;100664.34;4989938;28;97016;-28
2023/10/22 09:31:33;;;;;;;0.82;0.40;;;;;;;13.00;100.00;100672.56;4991693;28;96864;-27
2023/10/22 09:33:59;;;;;;;1.13;0.50;;;;;;;13.12;100.00;100674.38;4990055;28;100951;-28
2023/10/22 09:36:25;;;;;;;1.15;0.47;;;;;;;13.34;100.00;100673.63;4991785;28;97266;-27
2023/10/22 09:38:52;;;;;;;2.42;0.40;;;;;;;13.57;100.00;100671.88;4991637;28;96705;-28
2023/10/22 09:41:25;;;;;;;0.73;0.50;;;;;;;13.82;100.00;100680.84;4990198;28;97360;-28
2023/10/22 09:43:51;;;;;;;3.78;0.60;;;;;;;13.92;99.24;100676.44;4989897;28;101507;-27
2023/10/22 09:46:18;;;;;;;0.70;0.52;;;;;;;14.05;98.10;100681.78;4990048;28;101215;-28
2023/10/22 09:48:47;;;;;;;1.67;0.35;;;;;;;14.19;97.12;100673.38;4991784;28;96738;-27
2023/10/22 09:51:14;;;;;;;2.42;0.65;;;;;;;14.45;96.09;100682.19;4993668;28;96814;-28
2023/10/22 09:53:45;;;;;;;0.68;0.47;;;;;;;14.76;95.45;100685.19;4992633;28;100944;-27
2023/10/22 09:56:10;;;;;;;0.43;0.30;;;;;;;14.94;93.63;100679.22;4993514;28;101236;-28
2023/10/22 09:58:43;;;;;;;0.55;0.28;;;;;;;15.21;94.02;100685.13;4993508;28;96766;-28
2023/10/22 10:01:10;;;;;;;2.72;0.60;;;;;;;15.41;92.96;100679.84;4993384;28;96845;-28
2023/10/22 10:03:37;;;;;;;0.75;0.50;;;;;;;15.66;90.90;100693.13;4993166;28;101488;-27
2023/10/22 10:06:06;;;;;;;0.30;0.30;;;;;;;15.75;87.66;100685.16;4994642;28;98905;-28
2023/10/22 10:08:34;;;;;;;0.90;0.60;;;;;;;15.84;86.40;100690.69;4993199;28;96683;-27
2023/10/22 10:11:00;;;;;;;1.23;0.40;;;;;;;15.93;88.67;100692.66;4993708;28;96856;-27
2023/10/22 10:13:25;;;;;;;1.10;0.35;;;;;;;15.99;86.47;100688.50;4994501;28;97980;-28
2023/10/22 10:16:01;;;;;;;0.80;0.60;;;;;;;16.12;87.42;100688.31;4994558;28;97765;-28
2023/10/22 10:18:59;;;;;;;0.60;0.45;;;;;;;16.22;86.59;100699.31;4993913;28;96593;-27
2023/10/22 10:21:36;;;;;;;0.68;0.50;;;;;;;16.31;84.47;100702.09;4993171;28;97004;-28
2023/10/22 10:24:17;;;;;;;3.67;0.63;;;;;;;16.42;85.60;100713.94;4992854;28;101506;-29
2023/10/22 10:26:44;;;;;;;1.48;0.50;;;;;;;16.52;85.13;100718.47;4992984;28;100975;-28
2023/10/22 10:29:15;;;;;;;2.08;0.52;;;;;;;16.59;83.95;100709.69;4992834;28;96999;-29
2023/10/22 10:31:45;;;;;;;1.50;0.50;;;;;;;16.61;83.82;100724.09;4994446;28;96743;-28
2023/10/22 10:34:30;;;;;;;2.22;0.45;;;;;;;16.62;83.55;100723.97;4992770;28;101628;-28
2023/10/22 10:36:57;;;;;;;0.38;0.20;;;;;;;16.53;81.34;100720.19;4993145;28;101036;-27
2023/10/22 10:39:37;;;;;;;0.43;0.22;;;;;;;16.53;82.72;100739.31;4992796;28;96600;-28
2023/10/22 10:42:03;;;;;;;1.63;0.47;;;;;;;16.45;83.55;100743.75;4992803;28;97203;-28
2023/10/22 10:44:29;;;;;;;0.95;0.40;;;;;;;16.60;83.67;100742.38;4993718;28;97454;-29
2023/10/22 10:47:17;;;;;;;0.65;0.55;;;;;;;16.65;84.04;100737.38;4991932;28;100845;-28
2023/10/22 10:50:12;;;;;;;0.50;0.25;;;;;;;16.70;82.45;100742.44;4987574;28;96832;-28
2023/10/22 10:52:38;;;;;;;0.15;0.10;;;;;;;16.75;81.25;100734.69;4986949;28;96882;-27
2023/10/22 10:55:10;;;;;;;1.05;0.32;;;;;;;16.88;79.93;100739.97;4993975;28;98015;-28
2023/10/22 10:57:41;;;;;;;0.93;0.47;;;;;;;16.96;80.63;100734.66;4993468;28;98776;-28
2023/10/22 11:00:19;;;;;;;1.07;0.37;;;;;;;17.10;80.60;100733.41;4992541;28;96756;-28
2023/10/22 11:02:46;;;;;;;1.40;0.70;;;;;;;17.25;77.85;100736.63;4993946;28;96639;-28
2023/10/22 11:05:12;;;;;;;3.70;0.55;;;;;;;17.41;77.45;100735.06;4992225;28;100923;-27
2023/10/22 11:07:38;;;;;;;0.80;0.30;;;;;;;17.49;75.25;100728.00;4992261;28;99172;-27
2023/10/22 11:10:14;;;;;;;0.85;0.35;;;;;;;17.63;77.78;100742.13;4991614;28;96994;-28
2023/10/22 11:12:41;;;;;;;1.08;0.38;;;;;;;17.65;77.58;100735.69;4993900;28;96609;-28
2023/10/22 11:15:10;;;;;;;0.22;0.10;;;;;;;17.80;77.02;100736.97;4992099;28;100593;-28
2023/10/22 11:17:40;;;;;;;1.80;0.38;;;;;;;17.66;76.03;100737.38;4993440;28;97874;-28